LEAB/ABC METAR and TAF weather

Enter ICAO airport designator
Station Type Date Time Source
LEAB METAR 2021/10/24 21:00 UTC NOAA

LEAB 242100Z 21004KT CAVOK 08/02 Q1024 NOSIG


Station Type Date Time Source
LEAB Decoded METAR 2021/10/24 21:00 UTC NOAA

Albacete / Los Llanos, Spain (LEAB) 38-57N 001-51W 704M
Oct 24, 2021 - 05:00 PM EDT / 2021.10.24 2100 UTC
Wind: from the SSW (210 degrees) at 5 MPH (4 KT):0
Visibility: greater than 7 mile(s):0
Temperature: 46 F (8 C)
Dew Point: 35 F (2 C)
Relative Humidity: 65%
Pressure (altimeter): 30.24 in. Hg (1024 hPa)
ob: LEAB 242100Z 21004KT CAVOK 08/02 Q1024 NOSIG
cycle: 21

Station Type Date Time Source
LEAB TAF 2021/10/24 18:37 UTC NOAA

TAF COR LEAB 241930Z 2418/2518 VRB05KT CAVOK TX21/2515Z TN04/2507Z PROB40
TEMPO 2421/2503 15010KT PROB40
TEMPO 2500/2508 3000 BR BCFG SCT003 PROB30
TEMPO 2500/2508 0500 FG VV001

Example: see airport list